Extreme weather reports worldwide

Atmospheric pressure

Low pressure

Station
 
Location
 
Name
 
Wind
Knots
Gust
Knots
Vis
SM
Temp/Dew
C
Baro
inHg
METAR
 
ENUG 22 4/1 28.79 ENUG 182250Z AUTO 26022KT 9999NDV FEW015/// SCT048/// BKN071/// 04/01 Q0975 W///S5
HFT ENHF Hammerfest, NO Hammerfest Airport 16 6.21 2/1 28.85 ENHF 182250Z 26016KT 9999 -RA FEW010 SCT014 BKN022 02/01 Q0977 RMK WIND 1254FT 27027KT
ALF ENAT Alta, NO Alta Airport 5 6.21 2/-2 28.88 ENAT 182250Z AUTO VRB05KT 9999 BKN037/// 02/M02 Q0978 RMK WIND 700FT VRB03KT
BVG ENBV Berlevåg, NO Berlevåg Airport 26 6.21 0/-2 28.88 ENBV 182150Z 23026KT 9999 -SN BKN020 00/M02 Q0978
BJF ENBS Båtsfjord, NO Båtsfjord Airport 27 6.21 -4/-5 28.88 ENBS 182150Z 23027KT 9999 -SN BLSN SCT035 BKN047 M04/M05 Q0978

Station
 
Location
 
Name
 
Wind
Knots
Gust
Knots
Vis
SM
Temp/Dew
C
Baro
inHg
METAR
 
LKL ENNA Lakselv, NO Banak Airport 19 6.21 2/-2 28.91 ENNA 182250Z AUTO 18019KT 9999 NCD 02/M02 Q0979 RMK WIND 1800FT 25031KT
YYR CYYR Goose Bay, CA Goose Bay Airport 7 6 0/0 28.91 CYYR 182200Z 04007KT 6SM -SHRASN BR VCFG BKN003 BKN016 OVC036 00/00 A2891 RMK SF5SC2SC1 FG BNK N-NE VIS 1 1/2 SLP794
LYR ENSB Longyearbyen, NO Svalbard Airport, Longyear 22 2.36 -10/-14 28.94 ENSB 182250Z 11022KT 3800 SCT020 SCT240 M10/M14 Q0980 RMK WIND 1400FT 09029G40KT
TOS ENTC Tromsø, NO Tromsø Airport 23 5.59 3/1 28.97 ENTC 182220Z 23023KT 9000 -SHRA FEW005 BKN022 03/01 Q0981 RMK WIND 2600FT /////KT
YRF CYCA Cartwright, CA Cartwright Airport 18 32 5 1/-1 28.99 CYCA 182258Z AUTO 16018G32KT 5SM -RASN OVC039 01/M01 A2899 RMK PRESRR SLP820
KKN ENKR Kirkenes, NO Kirkenes Airport (Høybuktmoen) 14 3.11 -4/-5 29.00 ENKR 182250Z 18014KT 5000 -SN BKN023 M04/M05 Q0982 RMK WIND 731FT 21023KT
BDU ENDU Målselv, NO Bardufoss Airport 8 6.21 5/2 29.00 ENDU 182250Z 24008KT 9999 -RA FEW010 OVC035 05/02 Q0982 RMK WIND 1100FT 24017KT WIND 2200FT 24031KT
ANX ENAN Andenes, NO Andøya Airport 21 6.21 5/3 29.00 ENAN 182250Z 27021KT 9999 -RA SCT013 BKN027 05/03 Q0982
VDS ENVD Vadsø, NO Vadsø Airport 6 1.86 -2/-3 29.00 ENVD 182220Z 24006KT 3000 SN VV013 M02/M03 Q0982
CWZZ 8 / 29.00 CWZZ 182200Z AUTO 32008KT ////SM OVC005 ///// A2900
SYA PASY Shemya, US Eareckson Air Station 36 46 7 4/2 29.00 PASY 182157Z 06036G46KT 7SM BKN015 OVC024 04/03 A2900 RMK AO2A PK WND 06046/49 BKN V OVC SLP821 WND DATA ESTMD T00420025 PNO FZRANO $
NZCM 7 16 6.21 0/-5 29.01 NZCM 182255Z AUTO 08007G16KT 9999 CLR M00/M05 A2901 RMK AO2 SLP829 T10021051 $
YBX CYBX Lourdes-De-Blanc-Sablon, CA Lourdes de Blanc Sablon Airport 12 3 2/2 29.02 CYBX 182254Z 15012KT 3SM -RA BR BKN007 OVC019 02/02 A2902 RMK SC5SC3 SLP830
YGV CYGV Havre St-Pierre, CA Havre St Pierre Airport 6 9 -3/-4 29.03 CYGV 182255Z AUTO 28006KT 250V310 9SM OVC011 M03/M04 A2903 RMK SLP835
NZWD McMurdo Station, AQ Williams Field 6 6.21 -5/-8 29.04 NZWD 182255Z 05006KT 9999 FEW010 FEW030 FEW120 M05/M08 A2904 RMK SLP831 GRID22006KT SDG/HDG
KRN ESNQ Kiruna, SE Kiruna Airport 23 6.21 5/0 29.06 ESNQ 182250Z AUTO 23023KT 9999 BKN053/// 05/M00 Q0984
IVL EFIV Ivalo, FI Ivalo Airport 11 6.21 -3/-5 29.06 EFIV 182250Z AUTO 22011KT 9999 FEW013 M03/M05 Q0984
ENF EFET Enontekio, FI Enontekio Airport 7 6.21 -3/-5 29.06 EFET 182250Z AUTO 18007KT 9999 OVC049 M03/M05 Q0984
YNA CYNA Natashquan, CA Natashquan Airport 17 23 9 -2/-4 29.06 CYNA 182248Z AUTO 27017G23KT 9SM OVC014 M02/M04 A2906 RMK ICE SLP843
YAY CYAY St. Anthony, CA St. Anthony Airport 19 24 9 2/1 29.06 CYAY 182248Z AUTO 13019G24KT 9SM OVC005 02/01 A2906 RMK PRESRR SLP843
YMH CYMH Mary's Harbour, CA Mary's Harbour Airport 20 33 3 1/1 29.07 CYMH 182230Z AUTO 16020G33KT 3SM -RA BR OVC007 01/01 A2907 RMK SLP846
YDP CYDP Nain, CA Nain Airport 19 1.5 -9/-11 29.08 CYDP 182200Z 31019KT 1 1/2SM -SN DRSN OVC017 M09/M11 A2908 RMK SN4SC4 SLP850
EVE ENEV Evenes, NO Harstad/Narvik Airport, Evenes 26 43 6.21 6/4 29.08 ENEV 182250Z 23026G43KT 200V260 9999 -RA BKN014 06/04 Q0985 RMK WIND 1400FT 24046G66KT
SKN ENSK Hadsel, NO Stokmarknes Skagen Airport 34 49 2.49 6/3 29.08 ENSK 182150Z 25034G49KT 4000 +RA FEW010 SCT015 BKN022 06/03 Q0985
ZUM CZUM Churchill Falls, CA Churchill Falls Airport 22 29 1.25 -18/-21 29.09 CZUM 182200Z AUTO 31022G29KT 1 1/4SM -SN BLSN SCT030 OVC042 M18/M21 A2909 RMK PRESRR SLP886
YJT CYJT Stephenville, CA Stephenville Airport 3 10 2/2 29.09 CYJT 182200Z 07003KT 10SM -RA SCT005 OVC018 02/02 A2909 RMK SF4SC4 SLP855
CWRH 30 -12/-12 29.09 CWRH 182200Z AUTO 30030KT ////SM OVC003 M12/M12 A2909
YDF CYDF Deer Lake, CA Deer Lake Airport 5 12 2/2 29.11 CYDF 182257Z 21005KT 12SM SCT014 OVC027 02/02 A2911 RMK SC3SC5 SLP862
CWOB 25 36 -16/-18 29.12 CWOB 182247Z AUTO 02025G36KT ////SM BKN005 OVC009 M16/M18 A2912
GEV ESNG Gällivare, SE Gällivare Airport 3 6.21 -8/-12 29.14 ESNG 182250Z AUTO VRB03KT 9999 NCD M08/M12 Q0987
KTT EFKT Kittilä, FI Kittilä Airport 4 6.21 -5/-6 29.14 EFKT 182250Z AUTO 14004KT 110V200 CAVOK M05/M06 Q0987
LKN ENLK Leknes, NO Leknes Airport 16 6.21 6/4 29.14 ENLK 182150Z 26016KT 9999 -RA SCT020 BKN025 06/04 Q0987
PJA ESUP SE Pajala Airport 11 1/-1 29.17 ESUP 182250Z AUTO 22011KT //// FEW068/// 01/M01 Q0988
ENUN 23 5/3 29.17 ENUN 182250Z AUTO 28023KT 9999NDV -SHRA SCT012/// OVC037/// 05/03 Q0988 W06/S6
MMK ULMM Murmansk, RU Murmansk Airport 6 6.21 -5/-8 29.17 ULMM 182230Z 20003MPS 9999 -SHSN SCT017CB M05/M08 Q0988 R13/490137 NOSIG RMK QFE734
YGR CYGR Îles-de-la-Madeleine, CA Îles-de-la-Madeleine Airport 21 29 15 -3/-6 29.19 CYGR 182200Z 29021G29KT 15SM -SN OVC033 M03/M06 A2919 RMK SC8 SLP886
YGP CYGP Gaspé, CA Gaspé (Michel-Pouliot) Airport 15 24 15 -6/-13 29.19 CYGP 182200Z 28015G24KT 15SM BKN050 FEW180 M06/M13 A2919 RMK SC5AC2 SLP888
YQX CYQX Gander, CA Gander International Airport 19 25 4 5/5 29.20 CYQX 182224Z 15019G25KT 4SM -RA BR BKN007 OVC015 05/05 A2920 RMK SF6SC2 SLP895
YQY CYQY Sydney, CA Sydney / J.A. Douglas McCurdy Airport 9 15 3/2 29.21 CYQY 182225Z 23009KT 15SM BKN021 OVC100 03/02 A2921 RMK SC6AS2 SLP894
YPS CYPD Port Hawkesbury, CA Port Hawkesbury Airport 18 25 1.25 -1/-1 29.22 CYPD 182204Z AUTO 28018G25KT 1 1/4SM -SN OVC004 M01/M01 A2922 RMK SLP902
YZV CYZV Sept-Îles, CA Sept-Îles Airport 14 24 15 -11/-16 29.23 CYZV 182200Z 31014G24KT 15SM -SHSN DRSN BKN058 OVC080 M11/M16 A2923 RMK SC7AC1 CVCTV CLDS EMBD PRESRR SLP905
BOO ENBO Bodø, NO Bodø Airport 33 45 6.21 7/5 29.23 ENBO 182250Z 23033G45KT 9999 -SHRA FEW010 BKN018 OVC030 07/05 Q0990
FSP LFVP Saint-Pierre, PM St Pierre Airport 15 3.11 4/4 29.23 LFVP 182200Z 22015KT 5000 BR SCT003 BKN066 04/04 Q0990 NOSIG
YWK CYWK Wabush, CA Wabush Airport 19 27 3 -22/-26 29.25 CYWK 182200Z 31019G27KT 3SM -SN BLSN OVC025 M22/M26 A2925 RMK SC8 SLP956
TNM SCRM Isla Rey Jorge, AQ Teniente Rodolfo Marsh Martin Base 26 6.21 2/-3 29.26 SCRM 182300Z 21026KT 9999 FEW030 02/M03 Q0991 NOSIG

High pressure

Station
 
Location
 
Name
 
Wind
Knots
Gust
Knots
Vis
SM
Temp/Dew
C
Baro
inHg
METAR
 
KQDG 0 6.21 -6/-8 31.39 KQDG 182256Z AUTO 00000KT 9999 CLR M07/M08 A3139 RMK AO2 PRESRR SLP632 T10661083 PNO $
YKS UEEE Yakutsk, RU Yakutsk Airport 2 0.75 -41/-45 30.65 UEEE 182230Z 03001MPS 1200 R23L/P2000U BR NSC M41/M45 Q1038 R23L/490150 NOSIG RMK QFE769
ZAG LDZA Zagreb, HR Zagreb Airport 1 6.21 -1/-3 30.62 LDZA 182230Z VRB01KT 9999 FEW042 M01/M03 Q1037 NOSIG
LKLN Plzen, CZ Plzeň-Líně Airport 2 6.21 2/-1 30.59 LKLN 182200Z AUTO 28002KT 9999 OVC020 02/M01 Q1036
TZL LQTZ Tuzla, BA Tuzla International Airport 1 6.21 -3/-5 30.59 LQTZ 182200Z VRB01KT CAVOK M03/M05 Q1036

Station
 
Location
 
Name
 
Wind
Knots
Gust
Knots
Vis
SM
Temp/Dew
C
Baro
inHg
METAR
 
LHPA Pápa, HU Pápa Air Base 2 6.21 -2/-5 30.59 LHPA 182215Z 01002KT CAVOK M02/M05 Q1036 NOSIG RMK BLU
PEV LHPP Pécs-Pogány, HU Pécs-Pogány Airport 3 6.21 0/-4 30.59 LHPP 182215Z AUTO VRB03KT CAVOK M00/M04 Q1036
LHPR Győr, HU Győr-Pér International Airport 7 6.21 -1/-4 30.59 LHPR 182215Z AUTO 28007KT CAVOK M01/M04 Q1036
SOB LHSM Sármellék, HU Hévíz–Balaton Airport 6 4.97 -1/-4 30.59 LHSM 182215Z AUTO 32006KT 280V350 8000 NCD M01/M04 Q1036
OSI LDOS Osijek, HR Osijek Airport 7 6.21 -3/-5 30.59 LDOS 182230Z 26007KT CAVOK M03/M05 Q1036
LJCE Cerklje ob Krki, SI Cerklje Airport 1 4.97 -3/-4 30.59 LJCE 182230Z AUTO 24001KT 8000 BR NCD M03/M04 Q1036
MBX LJMB SI Maribor Airport 1 6.21 0/-3 30.59 LJMB 182230Z AUTO VRB01KT 9999 NCD M00/M03 Q1036
BNX LQBK Banja Luka, BA Banja Luka International Airport 4 6.21 -1/-3 30.59 LQBK 182230Z 18004KT 160V230 9999 SCT045 M01/M03 Q1036 NOSIG
BEG LYBE Belgrade, RS Belgrade Nikola Tesla Airport 6 6.21 -1/-3 30.59 LYBE 182230Z 26006KT CAVOK M01/M03 Q1036 NOSIG
BJY LYBT Batajnica, RS Batajnica Air Base 3 6.21 -4/-4 30.59 LYBT 182230Z 20003KT CAVOK M04/M04 Q1036 NOSIG
BTS LZIB Bratislava, SK M. R. Štefánik Airport 3 6.21 1/-4 30.59 LZIB 182230Z 35003KT 300V040 CAVOK 01/M04 Q1036 NOSIG
VIE LOWW Vienna, AT Vienna International Airport 2 6.21 -2/-6 30.59 LOWW 182250Z VRB02KT CAVOK M02/M06 Q1036 NOSIG
LPB SLLP La Paz / El Alto, BO El Alto International Airport 2 6.21 7/3 30.59 SLLP 182300Z VRB02KT 9999 FEW006 BKN200 07/03 Q1036
YFR CYFR Fort Resolution, CA Fort Resolution Airport 2 15 -32/-35 30.58 CYFR 182200Z 19002KT 15SM SKC M32/M35 A3058 RMK SLP386
PMF LIMP Parma, IT Parma Airport 2 1.24 3/3 30.56 LIMP 182150Z 23002KT 2000 BR BKN010 03/03 Q1035
BZO LIPB Bolzano, IT Bolzano Airport 3 6.21 0/-4 30.56 LIPB 182150Z VRB03KT CAVOK 00/M04 Q1035 RMK MON INVIS
LIVM 1 3/3 30.56 LIVM 182155Z AUTO VRB01KT //// 03/03 Q1035
WIE ETOU Wiesbaden, DE Wiesbaden Army Airfield 8 6.21 5/-2 30.56 ETOU 182156Z AUTO 11008KT 9999 OVC022 05/M03 A3056 RMK AO2 SLP356 T00541027
YHY CYHY Hay River, CA Hay River / Merlyn Carter Airport 3 15 -27/-30 30.56 CYHY 182200Z 13003KT 15SM SKC M27/M30 A3056 RMK SLP380
YPY CYPY Fort Chipewyan, CA Fort Chipewyan Airport 8 9 -29/-33 30.56 CYPY 182200Z AUTO 28008KT 9SM CLR M29/M33 A3056 RMK SLP389
YSM CYSM Fort Smith, CA Fort Smith Airport 3 15 -31/-34 30.56 CYSM 182200Z 28003KT 15SM FEW025 M31/M34 A3056 RMK SC1 SC TR SLP388
LKKB Prague, CZ Kbely Air Base 3 6.21 1/-1 30.56 LKKB 182200Z 21003KT 180V280 9999 OVC023 01/M01 Q1035
SJJ LQSA Sarajevo, BA Sarajevo International Airport 1 6.21 -5/-6 30.56 LQSA 182200Z VRB01KT 9999 SCT045 M05/M06 Q1035
TLS LFBO Toulouse/Blagnac, FR Toulouse-Blagnac Airport 4 5.59 1/1 30.56 LFBO 182230Z AUTO 23004KT 9000 BKN005 OVC010 01/01 Q1035 TEMPO 3000 BR
DCM LFCK Castres/Mazamet, FR Castres-Mazamet Airport 1 0.47 -2/-2 30.56 LFCK 182230Z AUTO 26001KT 0750 0700 R14/0900N FZFG VV/// M02/M02 Q1035
LJU LJLJ Ljubljana, SI Ljubljana Jože Pučnik Airport 3 6.21 -4/-5 30.56 LJLJ 182230Z 31003KT CAVOK M04/M05 Q1035 NOSIG
POW LJPZ Portoroz, SI Portoroz Airport 6 6.21 2/-2 30.56 LJPZ 182230Z AUTO 11006KT 9999 NCD 02/M02 Q1035
LKCV Čáslav, CZ Čáslav Air Base 2 6.21 1/-1 30.56 LKCV 182230Z 27002KT 9999 OVC028 01/M01 Q1035 NOSIG RMK BLU BLU
OSR LKMT Ostrava, CZ Ostrava Leos Janáček Airport 3 3.73 -4/-4 30.56 LKMT 182230Z 23003KT 6000 BKN027 M04/M04 Q1035 BECMG 2500 BR
PED LKPD Pardubice, CZ Pardubice Airport 4 6.21 1/-1 30.56 LKPD 182230Z 27004KT 9999 BKN022 01/M01 Q1035 RMK WHT
PRG LKPR Prague, CZ Václav Havel Airport Prague 4 6.21 2/-1 30.56 LKPR 182230Z 25004KT 9999 BKN020 02/M01 Q1035 NOSIG
BRQ LKTB Brno, CZ Brno-Tuřany Airport 1 6.21 -2/-5 30.56 LKTB 182230Z VRB01KT CAVOK M02/M05 Q1035 NOSIG
ARW LRAR Arad, RO Arad International Airport 2 4.97 -5/-6 30.56 LRAR 182230Z VRB02KT 8000 NSC M05/M06 Q1035
KVO LYKV Kraljevo, RS Morava Airport 2 6.21 -2/-5 30.56 LYKV 182230Z VRB02KT CAVOK M02/M05 Q1035 NOSIG
PZY LZPP Piešťany, SK Piešťany Airport 1 6.21 -3/-5 30.56 LZPP 182230Z AUTO VRB01KT 9999 NCD M03/M05 Q1035
ILZ LZZI Žilina, SK Žilina Airport 2 6.21 -4/-5 30.56 LZZI 182230Z 27002KT 9999 BKN028 M04/M05 Q1035
LHKE Kecskemét, HU Kecskemét Airport 6 6.21 -4/-5 30.56 LHKE 182245Z 29006KT CAVOK M04/M05 Q1035 NOSIG RMK BLU
LHSN Szolnok, HU Szolnok Air Base 2 6.21 -3/-5 30.56 LHSN 182245Z 28002KT CAVOK M03/M05 Q1035 NOSIG RMK BLU
NUE EDDN Nuremberg, DE Nuremberg Airport 6 6.21 3/-1 30.56 EDDN 182250Z 10006KT 9999 BKN020 03/M01 Q1035
PSR LIBP Pescara, IT Pescara International Airport 4 5.59 2/2 30.56 LIBP 182250Z AUTO 20004KT 9000 FEW050/// 02/02 Q1035
BLQ LIPE Bologna, IT Bologna Guglielmo Marconi Airport 4 0.22 3/3 30.56 LIPE 182250Z 21004KT 0350 R12/0700D R30/0900N FG VV001 03/03 Q1035
TSF LIPH Treviso, IT Treviso-Sant'Angelo Airport 3 5.59 2/1 30.56 LIPH 182250Z AUTO 04003KT 9000 NCD 02/01 Q1035
TRS LIPQ Trieste, IT Trieste–Friuli Venezia Giulia Airport 2 6.21 2/-2 30.56 LIPQ 182250Z AUTO 05002KT 9999 NCD 02/M02 Q1035
RMI LIPR Rimini, IT Federico Fellini International Airport 2 0.03 0/-1 30.56 LIPR 182250Z AUTO VRB02KT 0050 R31/0350N FG VV001 00/M01 Q1035
VCE LIPZ Venice, IT Venice Marco Polo Airport 4 6.21 3/1 30.56 LIPZ 182250Z 04004KT CAVOK 03/01 Q1035 NOSIG